sensor_id;sensor_type;location;lat;lon;timestamp;temperature;humidity
71173;DHT22;58875;51.996;4.504;2023-08-07T00:01:46;15.10;77.39
71173;DHT22;58875;51.996;4.504;2023-08-07T00:04:12;15.14;77.40
71173;DHT22;58875;51.996;4.504;2023-08-07T00:06:37;15.13;76.81
71173;DHT22;58875;51.996;4.504;2023-08-07T00:09:03;15.19;77.02
71173;DHT22;58875;51.996;4.504;2023-08-07T00:11:28;15.19;77.58
71173;DHT22;58875;51.996;4.504;2023-08-07T00:13:54;14.95;77.96
71173;DHT22;58875;51.996;4.504;2023-08-07T00:16:19;14.65;79.39
71173;DHT22;58875;51.996;4.504;2023-08-07T00:18:45;14.45;79.02
71173;DHT22;58875;51.996;4.504;2023-08-07T00:21:11;14.38;79.33
71173;DHT22;58875;51.996;4.504;2023-08-07T00:23:37;14.28;79.41
71173;DHT22;58875;51.996;4.504;2023-08-07T00:26:02;14.28;79.29
71173;DHT22;58875;51.996;4.504;2023-08-07T00:28:28;14.28;79.83
71173;DHT22;58875;51.996;4.504;2023-08-07T00:30:55;14.38;79.71
71173;DHT22;58875;51.996;4.504;2023-08-07T00:33:20;14.39;79.73
71173;DHT22;58875;51.996;4.504;2023-08-07T00:35:46;14.45;80.39
71173;DHT22;58875;51.996;4.504;2023-08-07T00:38:12;14.51;80.85
71173;DHT22;58875;51.996;4.504;2023-08-07T00:40:38;14.58;80.88
71173;DHT22;58875;51.996;4.504;2023-08-07T00:43:04;14.69;80.86
71173;DHT22;58875;51.996;4.504;2023-08-07T00:45:36;14.69;81.18
71173;DHT22;58875;51.996;4.504;2023-08-07T00:48:04;14.76;80.80
71173;DHT22;58875;51.996;4.504;2023-08-07T00:50:30;14.72;80.34
71173;DHT22;58875;51.996;4.504;2023-08-07T00:52:56;14.65;80.11
71173;DHT22;58875;51.996;4.504;2023-08-07T00:55:22;14.76;80.10
71173;DHT22;58875;51.996;4.504;2023-08-07T00:57:49;14.79;79.93
71173;DHT22;58875;51.996;4.504;2023-08-07T01:00:15;14.85;78.72
71173;DHT22;58875;51.996;4.504;2023-08-07T01:02:41;14.88;78.52
71173;DHT22;58875;51.996;4.504;2023-08-07T01:05:07;14.96;78.09
71173;DHT22;58875;51.996;4.504;2023-08-07T01:07:33;14.99;78.14
71173;DHT22;58875;51.996;4.504;2023-08-07T01:09:58;15.00;77.57
71173;DHT22;58875;51.996;4.504;2023-08-07T01:12:37;15.06;77.54
71173;DHT22;58875;51.996;4.504;2023-08-07T01:15:16;15.03;76.05
71173;DHT22;58875;51.996;4.504;2023-08-07T01:17:44;15.07;75.92
71173;DHT22;58875;51.996;4.504;2023-08-07T01:20:11;15.16;75.97
71173;DHT22;58875;51.996;4.504;2023-08-07T01:22:36;15.11;74.83
71173;DHT22;58875;51.996;4.504;2023-08-07T01:25:02;15.20;75.17
71173;DHT22;58875;51.996;4.504;2023-08-07T01:27:34;15.19;74.58
71173;DHT22;58875;51.996;4.504;2023-08-07T01:33:10;15.29;74.17
71173;DHT22;58875;51.996;4.504;2023-08-07T01:35:47;15.29;73.72
71173;DHT22;58875;51.996;4.504;2023-08-07T01:38:15;15.36;74.23
71173;DHT22;58875;51.996;4.504;2023-08-07T01:40:42;15.41;74.22
71173;DHT22;58875;51.996;4.504;2023-08-07T01:43:08;15.40;74.02
71173;DHT22;58875;51.996;4.504;2023-08-07T01:45:34;15.34;74.90
71173;DHT22;58875;51.996;4.504;2023-08-07T01:48:00;15.29;75.16
71173;DHT22;58875;51.996;4.504;2023-08-07T01:50:26;15.18;73.98
71173;DHT22;58875;51.996;4.504;2023-08-07T01:52:51;15.18;74.92
71173;DHT22;58875;51.996;4.504;2023-08-07T01:55:18;15.16;74.30
71173;DHT22;58875;51.996;4.504;2023-08-07T01:57:44;15.16;74.32
71173;DHT22;58875;51.996;4.504;2023-08-07T02:00:10;15.14;74.81
71173;DHT22;58875;51.996;4.504;2023-08-07T02:02:36;15.09;75.37
71173;DHT22;58875;51.996;4.504;2023-08-07T02:05:02;15.13;75.65
71173;DHT22;58875;51.996;4.504;2023-08-07T02:07:28;15.13;76.00
71173;DHT22;58875;51.996;4.504;2023-08-07T02:09:53;15.11;75.31
71173;DHT22;58875;51.996;4.504;2023-08-07T02:12:19;15.14;74.86
71173;DHT22;58875;51.996;4.504;2023-08-07T02:14:44;15.18;75.23
71173;DHT22;58875;51.996;4.504;2023-08-07T02:17:10;15.19;74.60
71173;DHT22;58875;51.996;4.504;2023-08-07T02:19:35;15.27;74.42
71173;DHT22;58875;51.996;4.504;2023-08-07T02:22:02;15.29;73.43
71173;DHT22;58875;51.996;4.504;2023-08-07T02:24:27;15.30;73.16
71173;DHT22;58875;51.996;4.504;2023-08-07T02:26:53;15.31;73.41
71173;DHT22;58875;51.996;4.504;2023-08-07T02:29:18;15.39;73.62
71173;DHT22;58875;51.996;4.504;2023-08-07T02:31:44;15.37;73.15
71173;DHT22;58875;51.996;4.504;2023-08-07T02:34:09;15.36;73.04
71173;DHT22;58875;51.996;4.504;2023-08-07T02:36:35;15.47;73.09
71173;DHT22;58875;51.996;4.504;2023-08-07T02:39:00;15.44;73.35
71173;DHT22;58875;51.996;4.504;2023-08-07T02:41:26;15.47;73.63
71173;DHT22;58875;51.996;4.504;2023-08-07T02:43:51;15.41;73.87
71173;DHT22;58875;51.996;4.504;2023-08-07T02:46:16;15.40;74.82
71173;DHT22;58875;51.996;4.504;2023-08-07T02:48:43;15.43;75.03
71173;DHT22;58875;51.996;4.504;2023-08-07T02:51:09;15.39;76.12
71173;DHT22;58875;51.996;4.504;2023-08-07T02:53:35;15.24;77.43
71173;DHT22;58875;51.996;4.504;2023-08-07T02:56:00;15.03;78.58
71173;DHT22;58875;51.996;4.504;2023-08-07T02:58:26;14.83;79.33
71173;DHT22;58875;51.996;4.504;2023-08-07T03:00:51;14.64;80.31
71173;DHT22;58875;51.996;4.504;2023-08-07T03:03:17;14.54;80.88
71173;DHT22;58875;51.996;4.504;2023-08-07T03:05:52;14.55;80.98
71173;DHT22;58875;51.996;4.504;2023-08-07T03:08:17;14.52;81.28
71173;DHT22;58875;51.996;4.504;2023-08-07T03:10:54;14.57;81.28
71173;DHT22;58875;51.996;4.504;2023-08-07T03:13:21;14.59;81.36
71173;DHT22;58875;51.996;4.504;2023-08-07T03:15:46;14.61;81.37
71173;DHT22;58875;51.996;4.504;2023-08-07T03:18:14;14.67;81.70
71173;DHT22;58875;51.996;4.504;2023-08-07T03:20:40;14.61;81.21
71173;DHT22;58875;51.996;4.504;2023-08-07T03:23:05;14.52;80.78
71173;DHT22;58875;51.996;4.504;2023-08-07T03:25:31;14.51;80.20
71173;DHT22;58875;51.996;4.504;2023-08-07T03:27:56;14.54;80.44
71173;DHT22;58875;51.996;4.504;2023-08-07T03:30:22;14.57;80.62
71173;DHT22;58875;51.996;4.504;2023-08-07T03:32:47;14.61;80.64
71173;DHT22;58875;51.996;4.504;2023-08-07T03:35:13;14.64;80.53
71173;DHT22;58875;51.996;4.504;2023-08-07T03:37:38;14.64;80.87
71173;DHT22;58875;51.996;4.504;2023-08-07T03:40:04;14.67;80.36
71173;DHT22;58875;51.996;4.504;2023-08-07T03:42:30;14.68;80.40
71173;DHT22;58875;51.996;4.504;2023-08-07T03:44:55;14.72;80.25
71173;DHT22;58875;51.996;4.504;2023-08-07T03:47:21;14.67;79.86
71173;DHT22;58875;51.996;4.504;2023-08-07T03:49:46;14.68;79.75
71173;DHT22;58875;51.996;4.504;2023-08-07T03:52:12;14.68;79.87
71173;DHT22;58875;51.996;4.504;2023-08-07T03:54:37;14.72;80.10
71173;DHT22;58875;51.996;4.504;2023-08-07T03:57:03;14.83;80.00
71173;DHT22;58875;51.996;4.504;2023-08-07T03:59:29;14.80;80.02
71173;DHT22;58875;51.996;4.504;2023-08-07T04:01:54;14.80;79.60
71173;DHT22;58875;51.996;4.504;2023-08-07T04:04:20;14.86;79.47
71173;DHT22;58875;51.996;4.504;2023-08-07T04:06:45;14.92;79.21
71173;DHT22;58875;51.996;4.504;2023-08-07T04:09:11;15.00;78.77
71173;DHT22;58875;51.996;4.504;2023-08-07T04:11:36;15.07;78.60
71173;DHT22;58875;51.996;4.504;2023-08-07T04:14:02;15.18;78.38
71173;DHT22;58875;51.996;4.504;2023-08-07T04:16:30;15.18;77.96
71173;DHT22;58875;51.996;4.504;2023-08-07T04:18:56;15.22;77.33
71173;DHT22;58875;51.996;4.504;2023-08-07T04:21:22;15.26;76.84
71173;DHT22;58875;51.996;4.504;2023-08-07T04:23:48;15.29;76.39
71173;DHT22;58875;51.996;4.504;2023-08-07T04:26:14;15.30;75.74
71173;DHT22;58875;51.996;4.504;2023-08-07T04:28:39;15.39;75.49
71173;DHT22;58875;51.996;4.504;2023-08-07T04:31:05;15.43;75.00
71173;DHT22;58875;51.996;4.504;2023-08-07T04:33:30;15.39;74.47
71173;DHT22;58875;51.996;4.504;2023-08-07T04:35:56;15.43;74.34
71173;DHT22;58875;51.996;4.504;2023-08-07T04:38:21;15.41;73.53
71173;DHT22;58875;51.996;4.504;2023-08-07T04:40:49;15.40;73.64
71173;DHT22;58875;51.996;4.504;2023-08-07T04:43:16;15.47;73.72
71173;DHT22;58875;51.996;4.504;2023-08-07T04:45:42;15.53;73.59
71173;DHT22;58875;51.996;4.504;2023-08-07T04:48:10;15.57;73.88
71173;DHT22;58875;51.996;4.504;2023-08-07T04:50:37;15.55;73.90
71173;DHT22;58875;51.996;4.504;2023-08-07T04:53:06;15.50;73.46
71173;DHT22;58875;51.996;4.504;2023-08-07T04:55:32;15.50;73.70
71173;DHT22;58875;51.996;4.504;2023-08-07T04:57:58;15.51;73.65
71173;DHT22;58875;51.996;4.504;2023-08-07T05:00:24;15.53;72.87
71173;DHT22;58875;51.996;4.504;2023-08-07T05:02:50;15.55;73.30
71173;DHT22;58875;51.996;4.504;2023-08-07T05:05:16;15.58;73.39
71173;DHT22;58875;51.996;4.504;2023-08-07T05:07:42;15.57;72.63
71173;DHT22;58875;51.996;4.504;2023-08-07T05:10:09;15.57;72.25
71173;DHT22;58875;51.996;4.504;2023-08-07T05:12:35;15.51;71.97
71173;DHT22;58875;51.996;4.504;2023-08-07T05:15:01;15.50;72.05
71173;DHT22;58875;51.996;4.504;2023-08-07T05:17:26;15.60;72.71
71173;DHT22;58875;51.996;4.504;2023-08-07T05:19:52;15.58;72.37
71173;DHT22;58875;51.996;4.504;2023-08-07T05:22:17;15.55;71.67
71173;DHT22;58875;51.996;4.504;2023-08-07T05:24:43;15.55;71.85
71173;DHT22;58875;51.996;4.504;2023-08-07T05:27:10;15.57;71.90
71173;DHT22;58875;51.996;4.504;2023-08-07T05:29:36;15.61;72.11
71173;DHT22;58875;51.996;4.504;2023-08-07T05:34:40;15.71;71.53
71173;DHT22;58875;51.996;4.504;2023-08-07T05:37:07;15.65;72.30
71173;DHT22;58875;51.996;4.504;2023-08-07T05:39:34;15.72;72.13
71173;DHT22;58875;51.996;4.504;2023-08-07T05:42:00;15.74;72.60
71173;DHT22;58875;51.996;4.504;2023-08-07T05:44:25;15.72;72.20
71173;DHT22;58875;51.996;4.504;2023-08-07T05:46:51;15.81;72.43
71173;DHT22;58875;51.996;4.504;2023-08-07T05:49:16;15.87;72.58
71173;DHT22;58875;51.996;4.504;2023-08-07T05:51:42;15.85;72.29
71173;DHT22;58875;51.996;4.504;2023-08-07T05:54:08;15.94;72.69
71173;DHT22;58875;51.996;4.504;2023-08-07T05:56:33;15.99;72.27
71173;DHT22;58875;51.996;4.504;2023-08-07T05:58:59;15.95;72.34
71173;DHT22;58875;51.996;4.504;2023-08-07T06:01:24;15.91;72.15
71173;DHT22;58875;51.996;4.504;2023-08-07T06:03:56;15.98;72.29
71173;DHT22;58875;51.996;4.504;2023-08-07T06:06:22;16.05;72.46
71173;DHT22;58875;51.996;4.504;2023-08-07T06:08:48;16.12;71.60
71173;DHT22;58875;51.996;4.504;2023-08-07T06:11:14;16.11;71.65
71173;DHT22;58875;51.996;4.504;2023-08-07T06:13:40;16.12;72.20
71173;DHT22;58875;51.996;4.504;2023-08-07T06:16:06;16.09;72.00
71173;DHT22;58875;51.996;4.504;2023-08-07T06:18:32;16.06;72.25
71173;DHT22;58875;51.996;4.504;2023-08-07T06:20:57;15.97;71.85
71173;DHT22;58875;51.996;4.504;2023-08-07T06:23:23;15.92;71.52
71173;DHT22;58875;51.996;4.504;2023-08-07T06:25:48;15.87;71.23
71173;DHT22;58875;51.996;4.504;2023-08-07T06:28:14;15.91;71.47
71173;DHT22;58875;51.996;4.504;2023-08-07T06:30:39;15.97;71.47
71173;DHT22;58875;51.996;4.504;2023-08-07T06:33:05;16.09;71.41
71173;DHT22;58875;51.996;4.504;2023-08-07T06:35:30;16.18;70.91
71173;DHT22;58875;51.996;4.504;2023-08-07T06:37:56;16.22;71.16
71173;DHT22;58875;51.996;4.504;2023-08-07T06:40:21;16.28;70.57
71173;DHT22;58875;51.996;4.504;2023-08-07T06:42:47;16.36;69.28
71173;DHT22;58875;51.996;4.504;2023-08-07T06:45:12;16.45;69.41
71173;DHT22;58875;51.996;4.504;2023-08-07T06:47:38;16.50;69.26
71173;DHT22;58875;51.996;4.504;2023-08-07T06:52:29;16.80;68.54
71173;DHT22;58875;51.996;4.504;2023-08-07T06:54:54;16.79;67.47
71173;DHT22;58875;51.996;4.504;2023-08-07T06:57:20;16.94;67.12
71173;DHT22;58875;51.996;4.504;2023-08-07T06:59:45;17.00;67.03
71173;DHT22;58875;51.996;4.504;2023-08-07T07:02:11;16.99;66.89
71173;DHT22;58875;51.996;4.504;2023-08-07T07:04:37;16.88;67.03
71173;DHT22;58875;51.996;4.504;2023-08-07T07:07:03;16.64;67.12
71173;DHT22;58875;51.996;4.504;2023-08-07T07:09:28;16.66;67.68
71173;DHT22;58875;51.996;4.504;2023-08-07T07:11:55;16.79;66.12
71173;DHT22;58875;51.996;4.504;2023-08-07T07:14:21;16.84;65.71
71173;DHT22;58875;51.996;4.504;2023-08-07T07:16:47;17.01;65.26
71173;DHT22;58875;51.996;4.504;2023-08-07T07:19:12;17.17;63.49
71173;DHT22;58875;51.996;4.504;2023-08-07T07:21:38;17.41;63.61
71173;DHT22;58875;51.996;4.504;2023-08-07T07:24:04;17.46;61.97
71173;DHT22;58875;51.996;4.504;2023-08-07T07:26:29;17.52;63.06
71173;DHT22;58875;51.996;4.504;2023-08-07T07:28:55;17.56;60.38
71173;DHT22;58875;51.996;4.504;2023-08-07T07:31:21;17.66;61.72
71173;DHT22;58875;51.996;4.504;2023-08-07T07:33:46;17.82;62.71
71173;DHT22;58875;51.996;4.504;2023-08-07T07:36:17;17.87;61.95
71173;DHT22;58875;51.996;4.504;2023-08-07T07:38:43;17.86;61.74
71173;DHT22;58875;51.996;4.504;2023-08-07T07:41:08;17.93;64.09
71173;DHT22;58875;51.996;4.504;2023-08-07T07:43:37;18.04;64.10
71173;DHT22;58875;51.996;4.504;2023-08-07T07:46:03;17.61;60.59
71173;DHT22;58875;51.996;4.504;2023-08-07T07:48:28;17.68;60.44
71173;DHT22;58875;51.996;4.504;2023-08-07T07:51:01;17.72;60.14
71173;DHT22;58875;51.996;4.504;2023-08-07T07:53:27;17.87;60.11
71173;DHT22;58875;51.996;4.504;2023-08-07T07:55:52;18.03;60.62
71173;DHT22;58875;51.996;4.504;2023-08-07T07:58:18;18.12;58.59
71173;DHT22;58875;51.996;4.504;2023-08-07T08:00:43;18.24;60.38
71173;DHT22;58875;51.996;4.504;2023-08-07T08:03:09;18.36;58.65
71173;DHT22;58875;51.996;4.504;2023-08-07T08:05:34;18.04;59.56
71173;DHT22;58875;51.996;4.504;2023-08-07T08:08:01;17.99;59.92
71173;DHT22;58875;51.996;4.504;2023-08-07T08:10:29;18.18;60.56
71173;DHT22;58875;51.996;4.504;2023-08-07T08:12:55;18.41;59.83
71173;DHT22;58875;51.996;4.504;2023-08-07T08:15:21;18.57;59.50
71173;DHT22;58875;51.996;4.504;2023-08-07T08:17:47;18.53;56.51
71173;DHT22;58875;51.996;4.504;2023-08-07T08:20:14;18.45;59.02
71173;DHT22;58875;51.996;4.504;2023-08-07T08:22:44;18.43;56.64
71173;DHT22;58875;51.996;4.504;2023-08-07T08:25:11;18.60;58.19
71173;DHT22;58875;51.996;4.504;2023-08-07T08:27:40;18.81;58.67
71173;DHT22;58875;51.996;4.504;2023-08-07T08:30:07;18.87;56.38
71173;DHT22;58875;51.996;4.504;2023-08-07T08:32:34;19.13;59.16
71173;DHT22;58875;51.996;4.504;2023-08-07T08:35:00;18.82;56.10
71173;DHT22;58875;51.996;4.504;2023-08-07T08:37:25;18.30;57.22
71173;DHT22;58875;51.996;4.504;2023-08-07T08:39:51;18.22;58.59
71173;DHT22;58875;51.996;4.504;2023-08-07T08:42:16;18.12;58.99
71173;DHT22;58875;51.996;4.504;2023-08-07T08:44:53;18.23;57.37
71173;DHT22;58875;51.996;4.504;2023-08-07T08:47:18;18.24;58.94
71173;DHT22;58875;51.996;4.504;2023-08-07T08:49:47;18.45;58.69
71173;DHT22;58875;51.996;4.504;2023-08-07T08:52:16;18.23;57.43
71173;DHT22;58875;51.996;4.504;2023-08-07T08:54:43;18.13;58.86
71173;DHT22;58875;51.996;4.504;2023-08-07T08:57:11;18.26;56.88
71173;DHT22;58875;51.996;4.504;2023-08-07T08:59:36;18.50;56.62
71173;DHT22;58875;51.996;4.504;2023-08-07T09:02:03;18.85;59.02
71173;DHT22;58875;51.996;4.504;2023-08-07T09:04:29;18.74;57.38
71173;DHT22;58875;51.996;4.504;2023-08-07T09:06:54;18.51;57.62
71173;DHT22;58875;51.996;4.504;2023-08-07T09:09:21;18.69;57.45
71173;DHT22;58875;51.996;4.504;2023-08-07T09:11:47;19.06;56.79
71173;DHT22;58875;51.996;4.504;2023-08-07T09:14:16;19.11;56.71
71173;DHT22;58875;51.996;4.504;2023-08-07T09:16:44;19.37;55.06
71173;DHT22;58875;51.996;4.504;2023-08-07T09:19:11;19.47;52.92
71173;DHT22;58875;51.996;4.504;2023-08-07T09:21:37;19.62;54.53
71173;DHT22;58875;51.996;4.504;2023-08-07T09:24:02;19.54;53.84
71173;DHT22;58875;51.996;4.504;2023-08-07T09:26:28;19.25;56.24
71173;DHT22;58875;51.996;4.504;2023-08-07T09:28:54;19.02;56.17
71173;DHT22;58875;51.996;4.504;2023-08-07T09:31:23;18.64;56.16
71173;DHT22;58875;51.996;4.504;2023-08-07T09:33:52;18.68;58.13
71173;DHT22;58875;51.996;4.504;2023-08-07T09:36:17;18.78;55.99
71173;DHT22;58875;51.996;4.504;2023-08-07T09:38:44;19.05;57.17
71173;DHT22;58875;51.996;4.504;2023-08-07T09:41:09;19.13;56.69
71173;DHT22;58875;51.996;4.504;2023-08-07T09:43:36;19.33;56.37
71173;DHT22;58875;51.996;4.504;2023-08-07T09:46:06;19.43;54.01
71173;DHT22;58875;51.996;4.504;2023-08-07T09:48:42;19.64;53.62
71173;DHT22;58875;51.996;4.504;2023-08-07T09:51:09;19.56;53.81
71173;DHT22;58875;51.996;4.504;2023-08-07T09:53:35;19.54;53.72
71173;DHT22;58875;51.996;4.504;2023-08-07T09:56:01;19.66;55.32
71173;DHT22;58875;51.996;4.504;2023-08-07T09:58:28;19.71;56.09
71173;DHT22;58875;51.996;4.504;2023-08-07T10:00:53;19.80;53.66
71173;DHT22;58875;51.996;4.504;2023-08-07T10:03:21;19.95;54.00
71173;DHT22;58875;51.996;4.504;2023-08-07T10:05:47;19.90;52.65
71173;DHT22;58875;51.996;4.504;2023-08-07T10:08:12;19.94;51.08
71173;DHT22;58875;51.996;4.504;2023-08-07T10:10:39;19.93;51.39
71173;DHT22;58875;51.996;4.504;2023-08-07T10:13:05;19.87;51.62
71173;DHT22;58875;51.996;4.504;2023-08-07T10:15:32;19.73;49.73
71173;DHT22;58875;51.996;4.504;2023-08-07T10:17:58;19.87;51.18
71173;DHT22;58875;51.996;4.504;2023-08-07T10:20:29;20.01;53.23
71173;DHT22;58875;51.996;4.504;2023-08-07T10:23:03;20.17;51.75
71173;DHT22;58875;51.996;4.504;2023-08-07T10:25:32;19.83;49.71
71173;DHT22;58875;51.996;4.504;2023-08-07T10:27:58;19.95;52.14
71173;DHT22;58875;51.996;4.504;2023-08-07T10:30:26;19.84;48.95
71173;DHT22;58875;51.996;4.504;2023-08-07T10:32:53;20.00;50.23
71173;DHT22;58875;51.996;4.504;2023-08-07T10:35:30;19.94;50.62
71173;DHT22;58875;51.996;4.504;2023-08-07T10:38:05;20.07;52.14
71173;DHT22;58875;51.996;4.504;2023-08-07T10:40:32;20.00;52.54
71173;DHT22;58875;51.996;4.504;2023-08-07T10:43:01;20.20;50.87
71173;DHT22;58875;51.996;4.504;2023-08-07T10:45:36;20.18;51.01
71173;DHT22;58875;51.996;4.504;2023-08-07T10:48:10;20.17;53.97
71173;DHT22;58875;51.996;4.504;2023-08-07T10:55:54;20.45;51.82
71173;DHT22;58875;51.996;4.504;2023-08-07T10:58:37;20.26;50.84
71173;DHT22;58875;51.996;4.504;2023-08-07T11:03:56;20.26;52.53
71173;DHT22;58875;51.996;4.504;2023-08-07T11:06:24;20.41;51.66
71173;DHT22;58875;51.996;4.504;2023-08-07T11:08:54;20.55;50.24
71173;DHT22;58875;51.996;4.504;2023-08-07T11:11:20;20.65;48.89
71173;DHT22;58875;51.996;4.504;2023-08-07T11:13:46;20.65;48.68
71173;DHT22;58875;51.996;4.504;2023-08-07T11:16:12;20.51;50.26
71173;DHT22;58875;51.996;4.504;2023-08-07T11:18:39;20.56;49.97
71173;DHT22;58875;51.996;4.504;2023-08-07T11:21:09;20.66;50.03
71173;DHT22;58875;51.996;4.504;2023-08-07T11:23:37;20.57;50.14
71173;DHT22;58875;51.996;4.504;2023-08-07T11:26:02;20.52;49.32
71173;DHT22;58875;51.996;4.504;2023-08-07T11:28:28;20.34;50.54
71173;DHT22;58875;51.996;4.504;2023-08-07T11:30:55;19.83;52.13
71173;DHT22;58875;51.996;4.504;2023-08-07T11:33:22;19.88;54.35
71173;DHT22;58875;51.996;4.504;2023-08-07T11:35:48;20.07;54.43
71173;DHT22;58875;51.996;4.504;2023-08-07T11:38:34;20.01;54.55
71173;DHT22;58875;51.996;4.504;2023-08-07T11:41:05;20.18;54.07
71173;DHT22;58875;51.996;4.504;2023-08-07T11:43:33;19.98;55.93
71173;DHT22;58875;51.996;4.504;2023-08-07T11:46:01;19.81;55.45
71173;DHT22;58875;51.996;4.504;2023-08-07T11:48:30;19.87;57.08
71173;DHT22;58875;51.996;4.504;2023-08-07T11:50:58;20.20;57.21
71173;DHT22;58875;51.996;4.504;2023-08-07T11:53:25;20.51;55.63
71173;DHT22;58875;51.996;4.504;2023-08-07T11:55:56;20.68;56.91
71173;DHT22;58875;51.996;4.504;2023-08-07T11:58:22;20.63;56.47
71173;DHT22;58875;51.996;4.504;2023-08-07T12:00:49;20.79;56.92
71173;DHT22;58875;51.996;4.504;2023-08-07T12:03:29;20.97;55.54
71173;DHT22;58875;51.996;4.504;2023-08-07T12:05:57;20.99;56.88
71173;DHT22;58875;51.996;4.504;2023-08-07T12:08:23;20.82;52.08
71173;DHT22;58875;51.996;4.504;2023-08-07T12:10:50;20.45;53.28
71173;DHT22;58875;51.996;4.504;2023-08-07T12:13:20;20.21;54.36
71173;DHT22;58875;51.996;4.504;2023-08-07T12:15:46;20.36;54.18
71173;DHT22;58875;51.996;4.504;2023-08-07T12:18:12;20.44;54.84
71173;DHT22;58875;51.996;4.504;2023-08-07T12:20:38;20.26;52.78
71173;DHT22;58875;51.996;4.504;2023-08-07T12:23:04;20.24;54.84
71173;DHT22;58875;51.996;4.504;2023-08-07T12:25:29;19.80;54.37
71173;DHT22;58875;51.996;4.504;2023-08-07T12:27:55;19.62;56.77
71173;DHT22;58875;51.996;4.504;2023-08-07T12:30:20;19.42;57.91
71173;DHT22;58875;51.996;4.504;2023-08-07T12:32:45;19.64;58.28
71173;DHT22;58875;51.996;4.504;2023-08-07T12:35:11;19.84;58.88
71173;DHT22;58875;51.996;4.504;2023-08-07T12:37:36;19.80;58.69
71173;DHT22;58875;51.996;4.504;2023-08-07T12:40:02;19.59;59.63
71173;DHT22;58875;51.996;4.504;2023-08-07T12:42:30;19.33;59.86
71173;DHT22;58875;51.996;4.504;2023-08-07T12:44:55;19.46;60.70
71173;DHT22;58875;51.996;4.504;2023-08-07T12:47:21;19.49;60.21
71173;DHT22;58875;51.996;4.504;2023-08-07T12:49:46;19.45;59.84
71173;DHT22;58875;51.996;4.504;2023-08-07T12:52:13;19.34;59.97
71173;DHT22;58875;51.996;4.504;2023-08-07T12:54:38;19.02;61.65
71173;DHT22;58875;51.996;4.504;2023-08-07T12:57:04;18.95;61.62
71173;DHT22;58875;51.996;4.504;2023-08-07T12:59:29;18.65;64.36
71173;DHT22;58875;51.996;4.504;2023-08-07T13:01:55;18.18;67.52
71173;DHT22;58875;51.996;4.504;2023-08-07T13:04:20;17.86;70.86
71173;DHT22;58875;51.996;4.504;2023-08-07T13:06:46;17.71;72.84
71173;DHT22;58875;51.996;4.504;2023-08-07T13:09:11;17.25;73.01
71173;DHT22;58875;51.996;4.504;2023-08-07T13:11:37;17.15;75.78
71173;DHT22;58875;51.996;4.504;2023-08-07T13:14:02;17.30;77.55
71173;DHT22;58875;51.996;4.504;2023-08-07T13:16:28;17.35;76.71
71173;DHT22;58875;51.996;4.504;2023-08-07T13:18:53;17.89;77.94
71173;DHT22;58875;51.996;4.504;2023-08-07T13:21:19;18.24;76.81
71173;DHT22;58875;51.996;4.504;2023-08-07T13:23:44;18.38;74.50
71173;DHT22;58875;51.996;4.504;2023-08-07T13:26:10;18.65;72.24
71173;DHT22;58875;51.996;4.504;2023-08-07T13:28:35;18.51;71.69
71173;DHT22;58875;51.996;4.504;2023-08-07T13:31:01;18.40;69.93
71173;DHT22;58875;51.996;4.504;2023-08-07T13:33:27;18.50;68.83
71173;DHT22;58875;51.996;4.504;2023-08-07T13:35:52;18.75;69.07
71173;DHT22;58875;51.996;4.504;2023-08-07T13:38:18;18.79;66.99
71173;DHT22;58875;51.996;4.504;2023-08-07T13:40:44;19.06;66.32
71173;DHT22;58875;51.996;4.504;2023-08-07T13:43:10;19.03;64.17
71173;DHT22;58875;51.996;4.504;2023-08-07T13:45:37;19.29;67.88
71173;DHT22;58875;51.996;4.504;2023-08-07T13:48:02;19.34;62.27
71173;DHT22;58875;51.996;4.504;2023-08-07T13:50:28;19.32;62.75
71173;DHT22;58875;51.996;4.504;2023-08-07T13:52:54;19.49;62.48
71173;DHT22;58875;51.996;4.504;2023-08-07T13:55:19;19.45;62.31
71173;DHT22;58875;51.996;4.504;2023-08-07T13:57:45;19.52;60.83
71173;DHT22;58875;51.996;4.504;2023-08-07T14:00:11;19.33;60.17
71173;DHT22;58875;51.996;4.504;2023-08-07T14:02:37;19.33;60.95
71173;DHT22;58875;51.996;4.504;2023-08-07T14:05:03;19.16;60.29
71173;DHT22;58875;51.996;4.504;2023-08-07T14:07:29;19.25;62.00
71173;DHT22;58875;51.996;4.504;2023-08-07T14:09:54;19.53;60.93
71173;DHT22;58875;51.996;4.504;2023-08-07T14:12:20;19.50;60.95
71173;DHT22;58875;51.996;4.504;2023-08-07T14:14:46;19.62;60.22
71173;DHT22;58875;51.996;4.504;2023-08-07T14:17:11;19.69;60.74
71173;DHT22;58875;51.996;4.504;2023-08-07T14:19:37;19.70;60.72
71173;DHT22;58875;51.996;4.504;2023-08-07T14:22:02;19.81;60.48
71173;DHT22;58875;51.996;4.504;2023-08-07T14:24:28;19.87;60.42
71173;DHT22;58875;51.996;4.504;2023-08-07T14:26:53;19.98;59.69
71173;DHT22;58875;51.996;4.504;2023-08-07T14:29:19;20.10;59.38
71173;DHT22;58875;51.996;4.504;2023-08-07T14:31:45;20.07;59.10
71173;DHT22;58875;51.996;4.504;2023-08-07T14:34:10;19.91;58.09
71173;DHT22;58875;51.996;4.504;2023-08-07T14:36:36;19.84;58.26
71173;DHT22;58875;51.996;4.504;2023-08-07T14:39:02;19.95;59.48
71173;DHT22;58875;51.996;4.504;2023-08-07T14:41:28;19.83;59.48
71173;DHT22;58875;51.996;4.504;2023-08-07T14:43:53;19.97;59.86
71173;DHT22;58875;51.996;4.504;2023-08-07T14:46:20;20.18;59.93
71173;DHT22;58875;51.996;4.504;2023-08-07T14:51:13;20.71;58.49
71173;DHT22;58875;51.996;4.504;2023-08-07T14:53:38;20.68;57.08
71173;DHT22;58875;51.996;4.504;2023-08-07T14:56:03;20.15;58.97
71173;DHT22;58875;51.996;4.504;2023-08-07T14:58:29;19.67;59.33
71173;DHT22;58875;51.996;4.504;2023-08-07T15:00:55;19.60;60.00
71173;DHT22;58875;51.996;4.504;2023-08-07T15:03:21;19.37;61.05
71173;DHT22;58875;51.996;4.504;2023-08-07T15:05:47;19.39;62.48
71173;DHT22;58875;51.996;4.504;2023-08-07T15:08:12;19.46;60.59
71173;DHT22;58875;51.996;4.504;2023-08-07T15:10:39;19.49;61.22
71173;DHT22;58875;51.996;4.504;2023-08-07T15:13:06;19.52;60.62
71173;DHT22;58875;51.996;4.504;2023-08-07T15:15:32;19.53;59.62
71173;DHT22;58875;51.996;4.504;2023-08-07T15:17:58;19.50;59.58
71173;DHT22;58875;51.996;4.504;2023-08-07T15:20:25;19.30;60.60
71173;DHT22;58875;51.996;4.504;2023-08-07T15:22:51;19.09;59.82
71173;DHT22;58875;51.996;4.504;2023-08-07T15:25:17;19.08;60.00
71173;DHT22;58875;51.996;4.504;2023-08-07T15:27:43;19.22;60.41
71173;DHT22;58875;51.996;4.504;2023-08-07T15:30:09;19.29;59.93
71173;DHT22;58875;51.996;4.504;2023-08-07T15:32:35;19.25;60.14
71173;DHT22;58875;51.996;4.504;2023-08-07T15:35:01;19.40;61.38
71173;DHT22;58875;51.996;4.504;2023-08-07T15:37:27;19.36;60.79
71173;DHT22;58875;51.996;4.504;2023-08-07T15:39:52;19.26;59.91
71173;DHT22;58875;51.996;4.504;2023-08-07T15:42:18;19.18;60.51
71173;DHT22;58875;51.996;4.504;2023-08-07T15:44:43;19.22;62.32